Time;durP1;ratioP1;P1;durP2;ratioP2;P2;SDS_P1;SDS_P2;PMS_P1;PMS_P2;Temp;Humidity;BMP_temperature;BMP_pressure;BME280_temperature;BME280_humidity;BME280_pressure;Samples;Min_cycle;Max_cycle;Signal;HPM_P1;HPM_P2
2022/03/18 00:01:43;;;;;;;20.60;18.70;;;;;;;1.39;89.40;94252.72;5080163;28;20212;-75
2022/03/18 00:04:09;;;;;;;20.10;18.50;;;;;;;1.40;89.34;94246.56;5097547;28;20232;-75
2022/03/18 00:06:34;;;;;;;21.57;19.57;;;;;;;1.00;89.47;94211.13;5098473;28;20200;-75
2022/03/18 00:09:00;;;;;;;19.07;17.37;;;;;;;1.05;90.11;94229.41;5098730;28;20224;-74
2022/03/18 00:11:25;;;;;;;20.30;18.50;;;;;;;1.06;91.06;94245.63;5099705;28;20172;-75
2022/03/18 00:13:51;;;;;;;20.03;18.37;;;;;;;1.04;91.39;94245.00;5102827;28;20960;-73
2022/03/18 00:16:16;;;;;;;19.80;18.13;;;;;;;1.12;90.15;94239.75;5101438;28;20234;-75
2022/03/18 00:18:41;;;;;;;19.67;17.97;;;;;;;1.18;90.20;94262.19;5096368;28;20244;-76
2022/03/18 00:21:07;;;;;;;20.20;18.30;;;;;;;1.28;89.61;94254.94;5100749;28;20169;-75
2022/03/18 00:23:33;;;;;;;19.70;17.80;;;;;;;1.13;91.21;94262.72;5098657;28;20228;-76
2022/03/18 00:25:58;;;;;;;22.30;20.23;;;;;;;1.04;91.01;94243.22;5100360;28;20180;-75
2022/03/18 00:28:24;;;;;;;18.80;17.20;;;;;;;1.28;90.19;94263.47;5099119;28;20220;-75
2022/03/18 00:30:50;;;;;;;20.80;18.90;;;;;;;1.09;90.15;94234.97;5098180;28;20192;-75
2022/03/18 00:33:15;;;;;;;18.70;17.03;;;;;;;1.07;89.30;94258.31;5096623;28;20191;-74
2022/03/18 00:35:41;;;;;;;19.43;17.73;;;;;;;1.02;88.84;94260.63;5098239;28;20211;-76
2022/03/18 00:38:06;;;;;;;18.93;17.33;;;;;;;0.88;89.01;94235.72;5098554;28;20204;-75
2022/03/18 00:40:32;;;;;;;19.37;17.77;;;;;;;1.13;88.67;94272.19;5097620;28;21046;-75
2022/03/18 00:42:58;;;;;;;21.90;19.70;;;;;;;1.11;87.78;94274.97;5100123;28;20251;-75
2022/03/18 00:45:23;;;;;;;18.03;16.23;;;;;;;1.10;87.77;94275.13;5103077;28;20235;-75
2022/03/18 00:53:17;;;;;;;19.67;17.87;;;;;;;0.80;88.98;94255.59;5098411;28;20195;-76
2022/03/18 00:55:42;;;;;;;21.03;19.23;;;;;;;0.93;89.53;94286.59;5099029;28;20212;-76
2022/03/18 00:58:08;;;;;;;19.73;18.13;;;;;;;0.92;88.91;94280.66;5101285;28;20267;-75
2022/03/18 01:00:33;;;;;;;19.60;18.10;;;;;;;0.98;88.77;94286.88;5098730;28;20192;-75
2022/03/18 01:02:58;;;;;;;18.93;17.37;;;;;;;0.99;86.58;94262.75;5083474;28;20180;-75
2022/03/18 01:05:24;;;;;;;18.47;17.00;;;;;;;0.94;86.58;94289.00;5101400;28;20247;-75
2022/03/18 01:07:49;;;;;;;20.23;18.63;;;;;;;0.94;87.49;94299.28;5098932;28;20228;-75
2022/03/18 01:10:15;;;;;;;19.60;17.90;;;;;;;0.92;88.04;94290.94;5099433;28;20219;-75
2022/03/18 01:12:40;;;;;;;19.77;17.97;;;;;;;0.96;88.63;94301.66;5098864;28;20255;-75
2022/03/18 01:15:07;;;;;;;20.17;18.27;;;;;;;0.93;89.28;94292.56;5099537;28;20270;-75
2022/03/18 01:17:33;;;;;;;21.20;19.40;;;;;;;0.84;89.65;94296.16;5101381;28;20188;-75
2022/03/18 01:19:58;;;;;;;20.40;18.60;;;;;;;0.87;89.83;94280.38;5099031;28;20231;-75
2022/03/18 01:22:24;;;;;;;20.67;18.87;;;;;;;0.80;89.01;94253.81;5100095;28;20226;-76
2022/03/18 01:24:49;;;;;;;18.30;16.80;;;;;;;0.83;89.66;94286.88;5098162;28;20250;-75
2022/03/18 01:27:15;;;;;;;20.37;18.53;;;;;;;0.73;89.34;94281.19;5095881;28;20201;-75
2022/03/18 01:29:40;;;;;;;20.73;18.93;;;;;;;0.77;88.82;94264.47;5097364;28;20230;-75
2022/03/18 01:32:06;;;;;;;19.27;17.73;;;;;;;0.96;89.26;94293.97;5098741;28;20192;-76
2022/03/18 01:34:32;;;;;;;21.43;19.67;;;;;;;0.82;88.57;94275.00;5098759;28;20295;-76
2022/03/18 01:36:58;;;;;;;20.03;18.33;;;;;;;0.86;87.44;94260.81;5099536;28;20240;-75
2022/03/18 01:39:23;;;;;;;19.37;17.77;;;;;;;1.00;87.47;94295.19;5094639;28;20266;-75
2022/03/18 01:41:50;;;;;;;20.80;19.00;;;;;;;1.04;86.90;94281.78;5098288;28;20184;-76
2022/03/18 01:44:16;;;;;;;21.67;19.57;;;;;;;0.92;86.98;94285.78;5098921;28;20259;-75
2022/03/18 01:46:41;;;;;;;18.87;17.33;;;;;;;0.70;88.11;94260.22;5098036;28;20196;-76
2022/03/18 01:49:07;;;;;;;19.50;17.87;;;;;;;0.90;88.69;94287.75;5097131;28;20453;-76
2022/03/18 01:51:34;;;;;;;20.47;18.73;;;;;;;0.97;87.47;94296.34;5099999;28;20255;-76
2022/03/18 01:56:44;;;;;;;19.50;17.80;;;;;;;1.02;87.16;94281.19;5096473;28;20298;-76
2022/03/18 01:59:13;;;;;;;20.73;18.93;;;;;;;0.95;86.83;94289.81;5099493;28;20228;-75
2022/03/18 02:01:39;;;;;;;20.30;18.40;;;;;;;0.39;87.02;94232.13;5101162;28;20199;-76
2022/03/18 02:04:05;;;;;;;20.13;18.37;;;;;;;0.80;88.38;94296.72;5080553;28;20233;-73
2022/03/18 02:06:32;;;;;;;20.37;18.57;;;;;;;0.85;87.62;94299.53;5077530;28;20219;-75
2022/03/18 02:08:57;;;;;;;21.00;19.17;;;;;;;0.85;87.46;94290.06;5098818;28;20239;-74
2022/03/18 02:11:25;;;;;;;21.47;19.57;;;;;;;0.88;87.70;94305.13;5099302;28;20196;-75
2022/03/18 02:13:51;;;;;;;20.13;18.33;;;;;;;0.78;88.43;94294.31;5096580;28;20220;-75
2022/03/18 02:16:17;;;;;;;20.40;18.70;;;;;;;0.83;88.43;94301.50;5080002;28;20226;-75
2022/03/18 02:18:43;;;;;;;20.63;18.73;;;;;;;0.73;87.74;94295.84;5099290;28;20231;-75
2022/03/18 02:21:12;;;;;;;22.53;20.43;;;;;;;0.46;88.56;94268.19;5098609;28;20193;-75
2022/03/18 02:23:37;;;;;;;22.50;20.43;;;;;;;0.60;89.25;94296.47;5096182;28;20315;-74
2022/03/18 02:26:03;;;;;;;22.10;20.10;;;;;;;0.65;89.47;94295.91;5097162;28;20222;-73
2022/03/18 02:28:28;;;;;;;20.50;18.77;;;;;;;0.53;88.88;94279.34;5079969;28;20266;-75
2022/03/18 02:30:53;;;;;;;21.63;19.73;;;;;;;0.60;87.56;94251.97;5100709;28;20192;-75
2022/03/18 02:33:19;;;;;;;23.00;20.70;;;;;;;0.81;86.53;94281.09;5101207;28;20196;-75
2022/03/18 02:35:44;;;;;;;21.97;20.07;;;;;;;0.78;88.24;94304.59;5098789;28;20216;-76
2022/03/18 02:38:10;;;;;;;22.17;20.07;;;;;;;0.68;86.95;94298.94;5098684;28;20192;-75
2022/03/18 02:40:36;;;;;;;22.93;20.87;;;;;;;0.44;88.06;94291.47;5096419;28;20208;-75
2022/03/18 02:43:01;;;;;;;22.73;20.57;;;;;;;0.67;87.15;94317.88;5081803;28;20195;-75
2022/03/18 02:45:27;;;;;;;23.43;21.10;;;;;;;0.72;86.97;94313.03;5097872;28;20217;-75
2022/03/18 02:47:52;;;;;;;24.47;22.17;;;;;;;0.51;86.80;94287.25;5098083;28;20933;-76
2022/03/18 02:50:18;;;;;;;23.63;21.33;;;;;;;0.57;86.67;94296.81;5097707;28;20224;-75
2022/03/18 02:52:44;;;;;;;22.10;19.90;;;;;;;0.51;86.19;94289.81;5100056;28;20207;-75
2022/03/18 02:55:11;;;;;;;22.60;20.40;;;;;;;0.54;87.70;94327.19;5099751;28;20220;-75
2022/03/18 02:57:38;;;;;;;23.93;21.60;;;;;;;0.49;87.44;94304.59;5096787;28;20908;-76
2022/03/18 03:00:06;;;;;;;23.90;21.27;;;;;;;0.40;88.25;94297.16;5099321;28;20291;-76
2022/03/18 03:02:31;;;;;;;22.20;20.10;;;;;;;0.51;87.83;94332.69;5098462;28;20180;-75
2022/03/18 03:07:59;;;;;;;23.60;21.47;;;;;;;0.58;87.52;94328.41;5096323;28;20238;-76
2022/03/18 03:10:33;;;;;;;23.83;21.73;;;;;;;0.74;87.06;94346.25;5098658;28;20235;-75
2022/03/18 03:13:02;;;;;;;21.77;19.87;;;;;;;0.79;86.91;94347.34;5081278;28;20200;-75
2022/03/18 03:15:27;;;;;;;22.17;20.00;;;;;;;0.66;86.10;94331.72;5094109;28;20258;-75
2022/03/18 03:17:53;;;;;;;20.47;18.77;;;;;;;0.80;84.57;94343.78;5096011;28;20192;-75
2022/03/18 03:20:19;;;;;;;23.17;21.03;;;;;;;0.65;85.35;94330.13;5099142;28;20275;-76
2022/03/18 03:22:44;;;;;;;23.33;21.03;;;;;;;0.57;85.82;94337.94;5099654;28;20181;-76
2022/03/18 03:25:10;;;;;;;23.13;21.13;;;;;;;0.71;85.14;94337.13;5095894;28;20236;-75
2022/03/18 03:27:35;;;;;;;23.03;20.83;;;;;;;0.36;86.21;94311.31;5077092;28;20214;-75
2022/03/18 03:30:04;;;;;;;24.57;22.17;;;;;;;0.48;86.67;94349.25;5097808;28;20235;-76
2022/03/18 03:32:30;;;;;;;25.57;23.17;;;;;;;0.36;86.32;94335.22;5096869;28;21278;-75
2022/03/18 03:34:57;;;;;;;26.67;23.90;;;;;;;0.62;86.82;94363.91;5080196;28;20291;-75
2022/03/18 03:37:23;;;;;;;25.60;23.00;;;;;;;0.29;86.91;94343.81;5104775;28;20189;-76
2022/03/18 03:39:50;;;;;;;24.50;22.00;;;;;;;0.41;87.61;94363.75;5101943;28;20215;-75
2022/03/18 03:42:18;;;;;;;27.20;24.27;;;;;;;0.36;87.04;94366.03;5100230;28;20188;-75
2022/03/18 03:44:45;;;;;;;23.20;20.93;;;;;;;0.61;84.90;94364.84;5099198;28;20224;-75
2022/03/18 03:47:11;;;;;;;24.77;22.23;;;;;;;0.35;85.68;94355.94;5100127;28;20253;-75
2022/03/18 03:49:37;;;;;;;23.27;20.83;;;;;;;0.23;85.73;94353.00;5084238;28;20239;-75
2022/03/18 03:52:03;;;;;;;24.00;21.60;;;;;;;0.45;85.53;94365.00;5102590;28;20188;-76
2022/03/18 03:54:28;;;;;;;26.10;23.30;;;;;;;0.56;85.31;94356.88;5102360;28;20232;-75
2022/03/18 03:56:55;;;;;;;24.63;22.07;;;;;;;0.45;84.19;94349.56;5101996;28;20310;-76
2022/03/18 03:59:21;;;;;;;26.27;23.63;;;;;;;0.23;84.37;94327.31;5098748;28;20227;-75
2022/03/18 04:01:47;;;;;;;24.33;21.90;;;;;;;0.55;84.66;94380.16;5102480;28;20184;-74
2022/03/18 04:04:12;;;;;;;23.67;21.17;;;;;;;0.22;85.96;94356.53;5100679;28;20341;-75
2022/03/18 04:06:38;;;;;;;23.93;21.37;;;;;;;0.16;85.78;94359.00;5101398;28;20218;-76
2022/03/18 04:09:04;;;;;;;25.33;22.67;;;;;;;-0.08;85.60;94313.78;5084865;28;20287;-75
2022/03/18 04:11:30;;;;;;;25.43;22.93;;;;;;;0.28;86.28;94381.50;5098666;28;20276;-75
2022/03/18 04:13:55;;;;;;;22.87;20.57;;;;;;;0.57;84.44;94389.31;5101377;28;20252;-76
2022/03/18 04:16:21;;;;;;;25.37;21.73;;;;;;;0.44;84.05;94398.56;5103255;28;20216;-75
2022/03/18 04:18:47;;;;;;;25.80;23.03;;;;;;;0.63;83.06;94398.09;5099079;28;20263;-75
2022/03/18 04:21:13;;;;;;;27.00;23.07;;;;;;;0.48;83.33;94400.63;5083454;28;20198;-75
2022/03/18 04:23:40;;;;;;;25.03;22.47;;;;;;;0.37;83.90;94387.41;5100425;28;20239;-71
2022/03/18 04:26:05;;;;;;;23.90;21.33;;;;;;;-0.03;83.81;94347.41;5099013;28;20188;-73
2022/03/18 04:28:31;;;;;;;23.47;21.03;;;;;;;0.12;84.73;94409.91;5098342;28;21698;-72
2022/03/18 04:30:56;;;;;;;23.33;20.97;;;;;;;0.31;84.61;94391.47;5097745;28;20185;-74
2022/03/18 04:33:22;;;;;;;22.40;20.20;;;;;;;0.29;83.72;94387.47;5099327;28;20251;-73
2022/03/18 04:35:47;;;;;;;22.03;19.83;;;;;;;0.10;84.27;94408.47;5099101;28;20221;-73
2022/03/18 04:38:13;;;;;;;23.03;20.63;;;;;;;0.09;84.16;94394.84;5100505;28;20188;-73
2022/03/18 04:40:38;;;;;;;21.27;19.20;;;;;;;0.24;83.58;94398.25;5097594;28;20203;-73
2022/03/18 04:43:04;;;;;;;23.00;20.83;;;;;;;0.28;84.32;94401.28;5100629;28;20243;-73
2022/03/18 04:45:30;;;;;;;22.80;20.70;;;;;;;0.49;83.26;94407.38;5098734;28;20188;-73
2022/03/18 04:47:56;;;;;;;22.80;20.53;;;;;;;0.12;83.60;94393.69;5096988;28;21090;-73
2022/03/18 04:50:21;;;;;;;20.83;18.80;;;;;;;0.24;82.49;94407.72;5101682;28;20226;-72
2022/03/18 04:52:46;;;;;;;22.60;20.47;;;;;;;0.42;82.48;94415.94;5097049;28;20211;-70
2022/03/18 04:55:12;;;;;;;21.90;19.57;;;;;;;0.54;81.39;94422.25;5100677;28;20239;-73
2022/03/18 04:57:38;;;;;;;23.53;21.13;;;;;;;0.46;80.17;94410.28;5097624;28;20283;-73
2022/03/18 05:00:05;;;;;;;22.60;20.23;;;;;;;0.68;80.32;94422.31;5095950;28;20239;-78
2022/03/18 05:02:30;;;;;;;21.13;19.13;;;;;;;0.60;80.88;94424.13;5095807;28;20184;-80
2022/03/18 05:04:56;;;;;;;22.17;19.97;;;;;;;0.42;81.60;94432.13;5097024;28;20232;-82
2022/03/18 05:07:22;;;;;;;21.93;19.93;;;;;;;-0.03;81.80;94355.13;5079333;28;20224;-79
2022/03/18 05:09:48;;;;;;;22.70;20.47;;;;;;;0.70;81.36;94435.75;5097171;28;20224;-81
2022/03/18 05:12:15;;;;;;;22.63;20.50;;;;;;;0.49;81.85;94435.63;5096374;28;20192;-80
2022/03/18 05:14:41;;;;;;;20.93;18.83;;;;;;;0.80;79.83;94436.31;5098297;28;20246;-79
2022/03/18 05:17:08;;;;;;;21.67;19.70;;;;;;;0.73;79.25;94430.25;5099150;28;20187;-82
2022/03/18 05:19:34;;;;;;;22.90;19.53;;;;;;;0.72;79.22;94446.66;5099462;28;20208;-76
2022/03/18 05:22:01;;;;;;;23.00;20.63;;;;;;;0.48;80.95;94440.94;5080138;28;20204;-79
2022/03/18 05:24:26;;;;;;;23.20;21.10;;;;;;;0.59;80.98;94443.09;5098200;28;20247;-80
2022/03/18 05:26:53;;;;;;;21.30;19.20;;;;;;;0.78;78.84;94433.13;5081631;28;20172;-77
2022/03/18 05:29:19;;;;;;;20.53;18.53;;;;;;;0.80;80.01;94426.03;5078777;28;20239;-79
2022/03/18 05:31:46;;;;;;;19.67;17.87;;;;;;;0.29;79.25;94395.16;5100734;28;20177;-76
2022/03/18 05:34:12;;;;;;;19.20;17.43;;;;;;;-0.07;78.75;94410.34;5090709;28;20228;-81
2022/03/18 05:36:41;;;;;;;19.10;17.30;;;;;;;0.01;78.66;94438.53;5098411;28;20215;-76
2022/03/18 05:39:08;;;;;;;19.37;17.57;;;;;;;0.24;79.54;94443.66;5079443;28;20228;-75
2022/03/18 05:41:34;;;;;;;19.27;17.23;;;;;;;0.75;78.59;94442.94;5099067;28;20196;-76
2022/03/18 05:43:59;;;;;;;18.93;17.13;;;;;;;0.75;78.12;94415.47;5098387;28;20258;-84
2022/03/18 05:46:25;;;;;;;20.03;18.23;;;;;;;0.75;76.92;94414.66;5097121;28;20184;-78
2022/03/18 05:48:50;;;;;;;18.93;17.13;;;;;;;0.57;76.71;94398.78;5076953;28;20229;-79
2022/03/18 05:51:16;;;;;;;18.80;17.10;;;;;;;0.94;75.69;94420.13;5098736;28;20207;-84
2022/03/18 05:53:42;;;;;;;19.00;17.43;;;;;;;1.12;74.56;94446.28;5095531;28;20240;-79
2022/03/18 05:58:52;;;;;;;20.63;18.37;;;;;;;1.30;71.57;94439.03;5093013;28;20289;-82
2022/03/18 06:01:17;;;;;;;20.57;18.40;;;;;;;1.34;69.91;94419.69;5077710;28;20180;-81
2022/03/18 06:03:43;;;;;;;20.13;18.03;;;;;;;1.51;69.14;94449.38;5078363;28;20229;-77
2022/03/18 06:06:09;;;;;;;19.27;17.47;;;;;;;1.46;70.86;94428.53;5096569;28;20193;-81
2022/03/18 06:14:02;;;;;;;17.63;16.03;;;;;;;1.16;71.56;94457.84;5098473;28;20230;-76
2022/03/18 06:16:28;;;;;;;18.27;16.97;;;;;;;0.95;71.34;94439.69;5097771;22;20212;-73
2022/03/18 06:18:54;;;;;;;17.63;16.23;;;;;;;1.07;72.12;94478.66;5045954;28;20232;-73
2022/03/18 06:21:22;;;;;;;17.00;15.67;;;;;;;1.00;70.81;94473.41;5069143;28;20240;-73
2022/03/18 06:23:47;;;;;;;16.10;14.80;;;;;;;1.32;70.16;94483.38;5067982;28;20233;-74
2022/03/18 06:26:13;;;;;;;16.40;15.07;;;;;;;1.43;69.00;94495.03;5069664;28;20188;-73
2022/03/18 06:28:38;;;;;;;16.40;15.10;;;;;;;1.40;67.83;94501.31;5069348;28;20237;-73
2022/03/18 06:31:06;;;;;;;15.83;14.53;;;;;;;1.42;69.07;94509.66;5069785;28;20198;-74
2022/03/18 06:33:35;;;;;;;15.90;14.57;;;;;;;1.31;68.85;94481.78;5069022;28;20240;-73
2022/03/18 06:36:01;;;;;;;15.37;14.17;;;;;;;1.51;66.81;94502.63;5069618;28;20228;-74
2022/03/18 06:38:26;;;;;;;16.03;14.83;;;;;;;1.59;67.43;94513.66;5068788;28;20232;-74
2022/03/18 06:40:52;;;;;;;17.00;15.70;;;;;;;1.37;68.87;94499.09;5069805;28;20194;-73
2022/03/18 06:43:17;;;;;;;16.77;15.47;;;;;;;1.37;69.26;94514.53;5069796;28;20192;-74
2022/03/18 06:45:43;;;;;;;16.70;15.40;;;;;;;1.54;67.84;94518.53;5069236;28;20249;-74
2022/03/18 06:48:08;;;;;;;16.07;14.87;;;;;;;1.32;68.59;94473.06;5069189;28;20774;-74
2022/03/18 06:50:34;;;;;;;15.60;14.30;;;;;;;1.73;66.29;94512.03;5069003;28;21270;-74
2022/03/18 06:53:00;;;;;;;14.80;13.60;;;;;;;1.84;63.77;94534.75;5068852;28;20209;-75
2022/03/18 06:55:26;;;;;;;15.43;14.37;;;;;;;1.61;62.52;94534.06;5050061;28;20308;-74
2022/03/18 06:57:51;;;;;;;15.37;14.07;;;;;;;1.64;64.10;94544.81;5069007;28;20253;-74
2022/03/18 07:00:17;;;;;;;15.63;14.53;;;;;;;1.86;63.15;94547.47;5068636;28;20217;-74
2022/03/18 07:02:42;;;;;;;15.70;14.40;;;;;;;1.67;61.84;94508.41;5052064;28;20200;-74
2022/03/18 07:05:09;;;;;;;16.17;14.97;;;;;;;2.05;61.46;94558.03;5067954;28;20878;-74
2022/03/18 07:07:34;;;;;;;15.73;14.50;;;;;;;2.05;62.50;94523.75;5068588;28;20195;-74
2022/03/18 07:10:00;;;;;;;17.00;15.43;;;;;;;2.17;61.42;94530.03;5069945;28;20221;-74
2022/03/18 07:12:27;;;;;;;14.70;13.70;;;;;;;2.26;60.23;94544.41;5073689;28;20189;-75
2022/03/18 07:14:52;;;;;;;15.10;14.03;;;;;;;2.14;60.82;94572.41;5072717;28;20217;-74
2022/03/18 07:20:02;;;;;;;14.57;13.57;;;;;;;2.32;60.11;94569.47;5072727;28;20797;-74
2022/03/18 07:22:28;;;;;;;14.87;13.67;;;;;;;2.21;61.75;94536.44;5073382;28;20176;-74
2022/03/18 07:24:53;;;;;;;14.90;13.60;;;;;;;2.70;61.14;94543.31;5072638;28;20224;-74
2022/03/18 07:27:18;;;;;;;16.97;15.53;;;;;;;2.56;61.29;94551.09;5072568;28;20200;-74
2022/03/18 07:29:44;;;;;;;14.83;13.63;;;;;;;2.59;60.50;94561.84;5073072;28;20304;-73
2022/03/18 07:32:09;;;;;;;16.30;15.00;;;;;;;2.76;59.67;94568.38;5054834;28;20205;-73
2022/03/18 07:34:35;;;;;;;16.47;15.23;;;;;;;2.85;61.73;94575.00;5072868;28;20217;-74
2022/03/18 07:37:00;;;;;;;15.07;14.07;;;;;;;2.70;59.42;94538.16;5074984;28;20217;-73
2022/03/18 07:39:26;;;;;;;16.13;14.93;;;;;;;2.06;58.69;94571.69;5072323;28;20259;-74
2022/03/18 07:41:51;;;;;;;15.80;14.47;;;;;;;1.76;60.73;94590.72;5072591;28;20189;-73
2022/03/18 07:44:17;;;;;;;14.70;13.60;;;;;;;1.63;62.63;94578.44;5072379;28;20225;-73
2022/03/18 07:46:42;;;;;;;16.00;14.70;;;;;;;1.54;61.34;94528.81;5072196;28;20217;-74
2022/03/18 07:49:07;;;;;;;15.43;14.27;;;;;;;1.96;60.85;94584.06;5073731;28;20225;-73
2022/03/18 07:51:33;;;;;;;14.87;13.70;;;;;;;2.03;59.88;94590.09;5072622;28;20193;-74
2022/03/18 07:53:58;;;;;;;15.43;14.27;;;;;;;1.75;60.67;94560.78;5071809;28;20233;-74
2022/03/18 07:56:24;;;;;;;15.87;14.57;;;;;;;1.84;60.27;94554.59;5072483;28;20213;-74
2022/03/18 07:58:49;;;;;;;15.03;13.73;;;;;;;2.10;59.72;94593.56;5054721;28;20250;-73
2022/03/18 08:01:15;;;;;;;14.93;13.77;;;;;;;2.20;60.34;94596.66;5072401;28;20190;-73
2022/03/18 08:03:41;;;;;;;17.07;15.60;;;;;;;2.39;60.17;94585.78;5072665;28;20267;-75
2022/03/18 08:06:07;;;;;;;15.50;14.30;;;;;;;2.66;60.21;94600.59;5072580;28;20225;-72
2022/03/18 08:08:32;;;;;;;15.07;13.97;;;;;;;2.39;60.39;94598.69;5053748;28;20240;-74
2022/03/18 08:10:58;;;;;;;14.37;13.10;;;;;;;2.58;58.75;94598.94;5072442;28;20193;-80
2022/03/18 08:13:24;;;;;;;15.37;14.33;;;;;;;2.47;57.12;94593.44;5051858;28;20344;-82
2022/03/18 08:15:50;;;;;;;14.40;13.17;;;;;;;2.62;59.74;94604.50;5071748;28;20228;-81
2022/03/18 08:18:16;;;;;;;16.73;15.43;;;;;;;2.57;59.87;94574.09;5071064;28;20217;-81
2022/03/18 08:20:42;;;;;;;15.57;14.37;;;;;;;3.12;57.89;94609.59;5072712;28;20190;-82
2022/03/18 08:23:11;;;;;;;14.77;13.80;;;;;;;3.04;56.42;94599.38;5070434;28;20178;-81
2022/03/18 08:25:36;;;;;;;15.97;14.63;;;;;;;2.92;56.49;94575.06;5054291;28;20224;-81
2022/03/18 08:28:04;;;;;;;15.37;14.23;;;;;;;2.47;57.80;94594.22;5071798;28;20189;-80
2022/03/18 08:30:30;;;;;;;15.60;14.37;;;;;;;2.31;58.12;94607.31;5071802;28;21147;-81
2022/03/18 08:32:55;;;;;;;15.20;14.10;;;;;;;2.27;57.98;94605.28;5071184;28;20231;-82
2022/03/18 08:35:21;;;;;;;15.33;14.33;;;;;;;2.12;60.02;94589.81;5071712;28;20221;-81
2022/03/18 08:37:58;;;;;;;15.23;13.97;;;;;;;2.43;58.46;94592.19;5072532;28;20188;-80
2022/03/18 08:40:34;;;;;;;15.60;14.30;;;;;;;2.47;58.08;94577.97;5070529;28;20217;-81
2022/03/18 08:43:02;;;;;;;15.40;14.30;;;;;;;2.21;57.51;94598.25;5071309;28;20250;-81
2022/03/18 08:45:28;;;;;;;15.93;14.63;;;;;;;2.71;59.74;94601.63;5072459;28;20280;-81
2022/03/18 08:47:54;;;;;;;15.00;13.90;;;;;;;3.14;56.92;94592.16;5071966;28;20248;-81
2022/03/18 08:50:23;;;;;;;14.57;13.30;;;;;;;3.43;52.65;94604.91;5070827;28;20225;-82
2022/03/18 08:52:51;;;;;;;15.47;13.90;;;;;;;3.28;54.17;94583.53;5070572;28;20201;-81
2022/03/18 08:55:17;;;;;;;15.30;14.10;;;;;;;3.68;56.42;94593.19;5070749;28;20233;-81
2022/03/18 08:57:42;;;;;;;15.10;14.00;;;;;;;4.11;54.60;94604.22;5053667;28;20212;-81
2022/03/18 09:00:11;;;;;;;16.60;15.17;;;;;;;4.19;53.23;94596.28;5070608;28;20233;-81
2022/03/18 09:02:38;;;;;;;15.40;14.03;;;;;;;4.05;54.88;94598.00;5052849;28;20228;-81
2022/03/18 09:05:05;;;;;;;14.97;13.67;;;;;;;4.40;51.34;94589.25;5070027;28;20236;-81
2022/03/18 09:07:32;;;;;;;15.63;14.33;;;;;;;4.39;52.04;94597.97;5070166;28;20169;-81
2022/03/18 09:09:58;;;;;;;14.37;13.37;;;;;;;4.18;52.00;94592.91;5070106;28;20225;-81
2022/03/18 09:12:24;;;;;;;14.67;13.57;;;;;;;4.23;50.56;94590.56;5069651;28;20189;-81
2022/03/18 09:14:49;;;;;;;14.43;13.43;;;;;;;3.60;53.11;94541.69;5069332;28;20281;-81
2022/03/18 09:17:15;;;;;;;15.67;14.53;;;;;;;3.74;52.88;94564.03;5069690;28;20260;-82
2022/03/18 09:19:41;;;;;;;14.90;13.67;;;;;;;3.94;51.72;94575.28;5070087;28;20292;-81
2022/03/18 09:22:08;;;;;;;15.53;14.03;;;;;;;3.34;53.40;94582.81;5069995;28;20181;-82
2022/03/18 09:24:35;;;;;;;15.20;14.00;;;;;;;3.64;51.20;94589.41;5070667;28;20260;-82
2022/03/18 09:27:01;;;;;;;15.07;13.87;;;;;;;3.93;49.84;94615.03;5069765;28;20201;-82
2022/03/18 09:29:26;;;;;;;15.43;14.33;;;;;;;3.74;48.98;94602.78;5069482;28;20219;-82
2022/03/18 09:31:52;;;;;;;16.20;14.77;;;;;;;3.64;52.20;94601.50;5069694;28;20757;-81
2022/03/18 09:34:22;;;;;;;15.17;14.07;;;;;;;4.01;50.23;94601.97;5068773;28;20252;-81
2022/03/18 09:36:48;;;;;;;16.47;15.27;;;;;;;3.92;49.17;94579.81;5068437;28;20296;-81
2022/03/18 09:39:14;;;;;;;15.80;14.53;;;;;;;3.90;46.80;94601.69;5069051;28;20316;-81
2022/03/18 09:41:39;;;;;;;14.47;13.27;;;;;;;3.51;51.64;94584.13;5070905;28;20197;-82
2022/03/18 09:44:05;;;;;;;16.03;14.77;;;;;;;3.66;46.60;94592.56;5069328;28;20244;-81
2022/03/18 09:46:32;;;;;;;13.63;12.53;;;;;;;3.31;45.90;94594.28;5052124;28;20178;-81
2022/03/18 09:48:59;;;;;;;15.80;14.67;;;;;;;3.30;51.16;94612.53;5068700;28;20339;-83
2022/03/18 09:51:24;;;;;;;14.27;13.10;;;;;;;3.14;47.66;94567.13;5069079;28;20181;-81
2022/03/18 09:53:50;;;;;;;16.50;15.20;;;;;;;2.97;48.93;94552.09;5069167;28;20280;-81
2022/03/18 09:56:15;;;;;;;14.63;13.43;;;;;;;2.90;48.60;94557.19;5070444;28;20217;-80
2022/03/18 09:58:41;;;;;;;15.83;14.60;;;;;;;3.02;47.94;94554.91;5068063;28;20251;-80
2022/03/18 10:01:06;;;;;;;15.20;13.90;;;;;;;3.30;48.18;94597.84;5069073;28;20196;-81
2022/03/18 10:03:40;;;;;;;16.00;14.47;;;;;;;3.89;46.74;94611.22;5050626;28;20229;-86
2022/03/18 10:06:06;;;;;;;17.20;15.80;;;;;;;3.87;46.61;94574.44;5050287;28;20213;-81
2022/03/18 10:08:35;;;;;;;18.13;16.23;;;;;;;4.08;45.49;94607.97;5068960;28;20284;-79
2022/03/18 10:11:13;;;;;;;17.03;15.03;;;;;;;3.81;44.38;94580.38;5068949;28;20193;-81
2022/03/18 10:14:03;;;;;;;16.33;14.97;;;;;;;4.20;47.91;94596.09;5068805;28;20232;-80
2022/03/18 10:16:36;;;;;;;15.57;14.37;;;;;;;4.67;47.87;94603.88;5067813;28;20228;-82
2022/03/18 10:19:07;;;;;;;14.83;13.63;;;;;;;5.24;44.22;94605.22;5068040;28;20229;-80
2022/03/18 10:21:33;;;;;;;14.83;13.43;;;;;;;5.19;42.66;94553.22;5068009;28;20193;-81
2022/03/18 10:24:07;;;;;;;15.10;13.93;;;;;;;5.04;42.83;94589.66;5067942;28;20225;-84
2022/03/18 10:26:35;;;;;;;16.17;14.63;;;;;;;5.23;43.05;94604.41;5068648;28;20204;-80
2022/03/18 10:29:00;;;;;;;14.40;13.30;;;;;;;5.20;40.87;94589.25;5069988;28;20228;-79
2022/03/18 10:31:26;;;;;;;15.23;14.07;;;;;;;4.46;41.74;94601.41;5068632;28;20185;-80
2022/03/18 10:39:32;;;;;;;15.90;14.37;;;;;;;3.65;46.14;94601.31;5068015;28;20296;-79
2022/03/18 10:42:00;;;;;;;15.57;14.17;;;;;;;3.49;45.72;94600.81;5068724;28;20198;-80
2022/03/18 10:44:41;;;;;;;16.57;15.10;;;;;;;3.58;45.92;94587.53;5049853;28;20244;-79
2022/03/18 10:47:06;;;;;;;15.93;14.53;;;;;;;3.69;45.64;94581.88;5068558;28;20185;-80
2022/03/18 10:49:32;;;;;;;15.50;13.93;;;;;;;4.10;45.26;94569.81;5068661;28;20225;-80
2022/03/18 10:52:10;;;;;;;15.97;14.67;;;;;;;4.81;43.74;94595.16;5068325;28;20193;-80
2022/03/18 10:54:35;;;;;;;14.37;13.03;;;;;;;4.63;42.22;94601.88;5067765;28;20245;-79
2022/03/18 10:57:02;;;;;;;15.23;14.10;;;;;;;4.70;41.41;94593.13;5068363;28;20224;-80
2022/03/18 10:59:27;;;;;;;15.97;14.57;;;;;;;4.56;43.25;94564.84;5067819;28;20247;-80
2022/03/18 11:01:56;;;;;;;14.93;13.83;;;;;;;4.40;42.35;94585.84;5069667;28;20241;-80
2022/03/18 11:04:23;;;;;;;15.33;14.07;;;;;;;3.97;42.24;94564.56;5067965;28;20240;-80
2022/03/18 11:12:31;;;;;;;14.93;13.73;;;;;;;4.63;42.23;94578.59;5067149;28;20185;-80
2022/03/18 11:14:58;;;;;;;15.00;13.53;;;;;;;4.97;40.18;94575.88;5067683;28;20251;-80
2022/03/18 11:17:27;;;;;;;15.17;14.00;;;;;;;5.07;40.62;94584.09;5067901;28;20220;-80
2022/03/18 11:19:53;;;;;;;14.53;13.43;;;;;;;4.94;39.84;94584.84;5067982;28;20225;-79
2022/03/18 11:22:21;;;;;;;15.37;14.17;;;;;;;4.31;41.81;94582.63;5069976;28;20208;-80
2022/03/18 11:24:47;;;;;;;15.23;14.00;;;;;;;4.43;42.37;94588.06;5068053;28;20232;-79
2022/03/18 11:27:13;;;;;;;16.53;15.07;;;;;;;4.29;43.58;94582.03;5068275;28;20872;-80
2022/03/18 11:29:40;;;;;;;14.40;13.10;;;;;;;3.70;42.63;94583.47;5067495;28;20227;-79
2022/03/18 11:32:17;;;;;;;17.97;16.30;;;;;;;3.10;43.59;94586.56;5066223;28;20194;-79
2022/03/18 11:35:03;;;;;;;15.43;14.03;;;;;;;3.17;44.08;94584.03;5067559;28;20246;-80
2022/03/18 11:37:29;;;;;;;16.40;15.10;;;;;;;2.60;46.01;94511.09;5067407;28;20189;-80
2022/03/18 11:40:19;;;;;;;15.33;14.17;;;;;;;2.85;45.36;94574.19;5067451;28;20244;-79
2022/03/18 11:42:45;;;;;;;14.83;13.73;;;;;;;2.99;45.99;94571.56;5065485;28;20181;-79
2022/03/18 11:45:32;;;;;;;14.80;13.53;;;;;;;3.24;43.81;94571.97;5050610;28;20235;-79
2022/03/18 11:47:58;;;;;;;15.90;14.23;;;;;;;3.47;43.73;94559.66;5067100;28;20181;-80
2022/03/18 11:50:43;;;;;;;15.17;13.67;;;;;;;4.11;43.05;94576.56;5069031;28;20233;-81
2022/03/18 11:53:13;;;;;;;15.37;14.17;;;;;;;4.52;43.35;94568.78;5067694;28;20193;-80
2022/03/18 11:55:40;;;;;;;13.87;12.77;;;;;;;4.59;40.38;94565.22;5067099;28;20219;-79